createdAt,value
2022-10-18T00:00:16.361Z,6.52
2022-10-18T00:02:43.163Z,6.55
2022-10-18T00:05:09.940Z,6.56
2022-10-18T00:07:36.542Z,6.53
2022-10-18T00:10:04.499Z,6.52
2022-10-18T00:12:34.857Z,6.48
2022-10-18T00:15:02.771Z,6.47
2022-10-18T00:17:29.708Z,6.42
2022-10-18T00:19:56.588Z,6.40
2022-10-18T00:22:23.190Z,6.42
2022-10-18T00:24:49.886Z,6.41
2022-10-18T00:27:16.761Z,6.39
2022-10-18T00:29:43.444Z,6.39
2022-10-18T00:32:12.079Z,6.33
2022-10-18T00:34:40.381Z,6.33
2022-10-18T00:37:07.319Z,6.33
2022-10-18T00:39:34.212Z,6.27
2022-10-18T00:42:01.335Z,6.31
2022-10-18T00:44:27.965Z,6.31
2022-10-18T00:47:01.629Z,6.29
2022-10-18T00:49:35.530Z,6.33
2022-10-18T00:52:11.075Z,6.33
2022-10-18T00:54:40.488Z,6.32
2022-10-18T00:57:08.029Z,6.30
2022-10-18T00:59:35.381Z,6.32
2022-10-18T01:02:02.355Z,6.30
2022-10-18T01:04:29.168Z,6.31
2022-10-18T01:07:04.202Z,6.27
2022-10-18T01:10:08.164Z,6.30
2022-10-18T01:12:56.302Z,6.29
2022-10-18T01:15:28.357Z,6.27
2022-10-18T01:18:07.071Z,6.25
2022-10-18T01:20:51.710Z,6.22
2022-10-18T01:23:41.230Z,6.19
2022-10-18T01:26:45.276Z,6.21
2022-10-18T01:29:53.460Z,6.21
2022-10-18T01:32:24.468Z,6.18
2022-10-18T01:34:56.099Z,6.18
2022-10-18T01:37:23.228Z,6.18
2022-10-18T01:39:54.461Z,6.18
2022-10-18T01:42:22.088Z,6.20
2022-10-18T01:44:50.823Z,6.18
2022-10-18T01:47:19.665Z,6.14
2022-10-18T01:49:46.724Z,6.15
2022-10-18T01:52:14.916Z,6.15
2022-10-18T01:54:45.255Z,6.11
2022-10-18T01:58:04.983Z,6.12
2022-10-18T02:00:42.462Z,6.09
2022-10-18T02:03:23.535Z,6.04
2022-10-18T02:05:59.247Z,6.07
2022-10-18T02:08:31.131Z,6.02
2022-10-18T02:11:04.760Z,6.02
2022-10-18T02:13:57.228Z,6.03
2022-10-18T02:16:33.108Z,6.00
2022-10-18T02:19:08.693Z,6.00
2022-10-18T02:21:38.123Z,6.01
2022-10-18T02:24:06.551Z,5.99
2022-10-18T02:26:33.295Z,5.98
2022-10-18T02:29:00.157Z,6.00
2022-10-18T02:31:49.104Z,6.00
2022-10-18T02:34:23.248Z,6.01
2022-10-18T02:36:54.219Z,6.02
2022-10-18T02:39:29.569Z,6.03
2022-10-18T02:41:57.672Z,6.02
2022-10-18T02:44:24.844Z,6.04
2022-10-18T02:46:51.521Z,6.03
2022-10-18T02:49:18.584Z,6.03
2022-10-18T02:51:45.480Z,6.02
2022-10-18T02:54:12.098Z,6.03
2022-10-18T02:56:38.832Z,6.02
2022-10-18T02:59:07.449Z,5.99
2022-10-18T03:01:37.230Z,5.99
2022-10-18T03:04:05.252Z,5.98
2022-10-18T03:06:32.813Z,5.97
2022-10-18T03:08:59.596Z,5.95
2022-10-18T03:11:26.257Z,5.95
2022-10-18T03:13:53.011Z,5.93
2022-10-18T03:16:19.778Z,5.95
2022-10-18T03:18:46.808Z,5.95
2022-10-18T03:21:13.636Z,5.95
2022-10-18T03:23:42.311Z,5.97
2022-10-18T03:26:10.043Z,5.97
2022-10-18T03:28:36.811Z,5.95
2022-10-18T03:31:04.692Z,5.95
2022-10-18T03:33:32.688Z,5.92
2022-10-18T03:35:59.692Z,5.88
2022-10-18T03:38:26.620Z,5.87
2022-10-18T03:40:53.204Z,5.85
2022-10-18T03:43:19.978Z,5.85
2022-10-18T03:45:46.631Z,5.84
2022-10-18T03:48:13.272Z,5.80
2022-10-18T03:50:40.062Z,5.79
2022-10-18T03:53:06.850Z,5.74
2022-10-18T03:55:33.475Z,5.74
2022-10-18T03:58:00.275Z,5.71
2022-10-18T04:00:26.912Z,5.72
2022-10-18T04:02:55.871Z,5.68
2022-10-18T04:05:28.156Z,5.69
2022-10-18T04:07:55.285Z,5.67
2022-10-18T04:10:22.581Z,5.66
2022-10-18T04:12:49.386Z,5.62
2022-10-18T04:15:16.533Z,5.60
2022-10-18T04:17:43.185Z,5.62
2022-10-18T04:20:10.181Z,5.61
2022-10-18T04:22:36.877Z,5.57
2022-10-18T04:25:04.637Z,5.57
2022-10-18T04:27:31.743Z,5.57
2022-10-18T04:29:58.823Z,5.54
2022-10-18T04:32:27.864Z,5.52
2022-10-18T04:34:54.710Z,5.52
2022-10-18T04:37:21.456Z,5.51
2022-10-18T04:39:51.245Z,5.51
2022-10-18T04:42:21.073Z,5.49
2022-10-18T04:44:48.405Z,5.45
2022-10-18T04:47:15.537Z,5.50
2022-10-18T04:49:42.327Z,5.51
2022-10-18T04:52:09.468Z,5.52
2022-10-18T04:54:36.448Z,5.53
2022-10-18T04:57:03.334Z,5.52
2022-10-18T04:59:29.987Z,5.49
2022-10-18T05:01:56.730Z,5.44
2022-10-18T05:04:23.633Z,5.45
2022-10-18T05:06:50.666Z,5.43
2022-10-18T05:20:00.173Z,5.80
2022-10-18T05:22:26.935Z,5.88
2022-10-18T05:24:53.490Z,5.92
2022-10-18T05:27:20.447Z,5.95
2022-10-18T05:29:47.046Z,6.00
2022-10-18T05:32:13.832Z,6.05
2022-10-18T05:34:40.627Z,6.04
2022-10-18T05:37:07.477Z,6.13
2022-10-18T05:39:34.182Z,6.17
2022-10-18T05:42:01.185Z,6.21
2022-10-18T05:44:27.896Z,6.24
2022-10-18T05:46:54.654Z,6.25
2022-10-18T05:49:21.477Z,6.30
2022-10-18T05:51:48.158Z,6.34
2022-10-18T05:54:15.384Z,6.36
2022-10-18T05:56:42.389Z,6.37
2022-10-18T05:59:12.377Z,6.42
2022-10-18T06:01:40.599Z,6.43
2022-10-18T06:04:07.873Z,6.45
2022-10-18T06:06:34.498Z,6.46
2022-10-18T06:09:03.301Z,6.48
2022-10-18T06:11:31.155Z,6.50
2022-10-18T06:13:58.135Z,6.54
2022-10-18T06:16:31.295Z,6.59
2022-10-18T06:18:59.962Z,6.62
2022-10-18T06:21:27.041Z,6.63
2022-10-18T06:23:56.141Z,6.66
2022-10-18T06:26:23.306Z,6.64
2022-10-18T06:28:50.352Z,6.66
2022-10-18T06:31:17.528Z,6.68
2022-10-18T06:33:46.213Z,6.71
2022-10-18T06:36:18.532Z,6.79
2022-10-18T06:38:45.626Z,6.83
2022-10-18T06:41:12.383Z,6.86
2022-10-18T06:43:39.503Z,6.93
2022-10-18T06:46:08.220Z,6.97
2022-10-18T06:48:39.225Z,7.02
2022-10-18T06:51:07.449Z,7.07
2022-10-18T06:53:43.919Z,7.09
2022-10-18T08:34:49.689Z,10.45
2022-10-18T08:37:18.567Z,10.94
2022-10-18T08:39:45.458Z,11.47
2022-10-18T08:42:27.760Z,11.89
2022-10-18T08:44:55.595Z,12.29
2022-10-18T08:47:43.821Z,12.66
2022-10-18T08:51:43.690Z,13.00
2022-10-18T08:54:25.666Z,13.37
2022-10-18T08:57:05.200Z,13.52
2022-10-18T08:59:39.629Z,13.91
2022-10-18T09:02:12.450Z,14.06
2022-10-18T09:04:48.198Z,14.30
2022-10-18T09:07:36.912Z,14.48
2022-10-18T09:10:26.409Z,14.65
2022-10-18T09:13:11.848Z,14.85
2022-10-18T09:16:06.351Z,15.05
2022-10-18T09:18:48.947Z,15.27
2022-10-18T09:21:34.745Z,15.49
2022-10-18T09:24:04.272Z,15.66
2022-10-18T09:26:40.942Z,15.80
2022-10-18T09:29:29.423Z,15.93
2022-10-18T09:32:14.543Z,16.07
2022-10-18T09:34:59.055Z,16.23
2022-10-18T09:37:28.484Z,16.32
2022-10-18T09:40:03.122Z,16.51
2022-10-18T09:42:36.311Z,16.67
2022-10-18T09:45:32.088Z,16.83
2022-10-18T09:48:08.600Z,16.99
2022-10-18T09:50:45.319Z,17.15
2022-10-18T09:53:19.282Z,17.33
2022-10-18T09:55:59.405Z,17.52
2022-10-18T09:58:30.887Z,17.72
2022-10-18T10:00:58.115Z,17.89
2022-10-18T10:03:25.842Z,18.05
2022-10-18T10:06:17.601Z,18.20
2022-10-18T10:08:48.642Z,18.32
2022-10-18T10:11:45.674Z,18.47
2022-10-18T10:14:24.211Z,18.56
2022-10-18T10:16:57.515Z,18.64
2022-10-18T10:19:35.814Z,18.67
2022-10-18T10:22:34.806Z,18.59
2022-10-18T10:25:02.272Z,18.60
2022-10-18T10:27:43.573Z,18.60
2022-10-18T10:30:39.775Z,18.59
2022-10-18T10:33:06.761Z,18.62
2022-10-18T10:38:28.308Z,18.69
2022-10-18T10:40:55.908Z,18.75
2022-10-18T10:43:38.284Z,18.77
2022-10-18T10:46:13.198Z,18.85
2022-10-18T10:49:15.330Z,18.86
2022-10-18T10:51:43.818Z,18.90
2022-10-18T10:54:24.401Z,19.00
2022-10-18T10:57:12.782Z,19.10
2022-10-18T10:59:48.222Z,19.16
2022-10-18T11:02:17.773Z,19.30
2022-10-18T11:04:52.880Z,19.34
2022-10-18T11:07:43.246Z,19.32
2022-10-18T11:10:09.963Z,19.40
2022-10-18T11:12:43.434Z,19.44
2022-10-18T11:15:10.559Z,19.49
2022-10-18T11:18:15.009Z,19.62
2022-10-18T11:21:02.908Z,19.77
2022-10-18T11:23:32.924Z,19.93
2022-10-18T11:26:06.882Z,20.01
2022-10-18T11:28:36.312Z,20.06
2022-10-18T11:31:20.532Z,20.13
2022-10-18T11:34:18.796Z,20.21
2022-10-18T11:37:27.319Z,20.28
2022-10-18T11:40:07.965Z,20.31
2022-10-18T11:42:48.275Z,20.37
2022-10-18T11:45:52.510Z,20.36
2022-10-18T11:48:43.863Z,20.40
2022-10-18T11:51:55.907Z,20.47
2022-10-18T11:54:45.239Z,20.55
2022-10-18T11:57:42.849Z,20.62
2022-10-18T12:00:19.368Z,20.72
2022-10-18T12:03:14.195Z,20.74
2022-10-18T12:05:44.619Z,20.71
2022-10-18T12:08:26.924Z,20.73
2022-10-18T12:11:06.060Z,20.80
2022-10-18T12:13:48.202Z,20.83
2022-10-18T12:16:16.820Z,20.91
2022-10-18T12:19:01.037Z,20.98
2022-10-18T12:21:32.033Z,21.01
2022-10-18T12:24:16.077Z,21.04
2022-10-18T12:26:43.714Z,21.06
2022-10-18T12:29:38.361Z,21.06
2022-10-18T12:32:20.594Z,21.05
2022-10-18T12:34:51.913Z,21.05
2022-10-18T12:37:32.959Z,21.04
2022-10-18T12:40:11.515Z,21.00
2022-10-18T12:42:52.854Z,20.97
2022-10-18T12:45:26.601Z,20.98
2022-10-18T12:47:54.336Z,20.97
2022-10-18T12:50:44.045Z,20.98
2022-10-18T12:53:12.418Z,20.95
2022-10-18T12:55:44.584Z,20.91
2022-10-18T12:58:14.602Z,20.89
2022-10-18T13:00:41.845Z,20.89
2022-10-18T13:03:16.902Z,20.84
2022-10-18T13:05:55.568Z,20.83
2022-10-18T13:08:42.366Z,20.86
2022-10-18T13:11:09.062Z,20.87
2022-10-18T13:14:20.692Z,20.89
2022-10-18T13:17:11.378Z,20.91
2022-10-18T13:20:07.759Z,20.95
2022-10-18T13:23:17.289Z,20.97
2022-10-18T13:25:54.553Z,20.95
2022-10-18T13:28:47.448Z,20.91
2022-10-18T13:31:14.274Z,20.90
2022-10-18T13:33:42.175Z,20.89
2022-10-18T13:36:22.700Z,20.87
2022-10-18T13:38:57.675Z,20.86
2022-10-18T13:41:32.785Z,20.78
2022-10-18T13:44:05.242Z,20.71
2022-10-18T13:46:34.879Z,20.69
2022-10-18T13:49:34.627Z,20.71
2022-10-18T13:52:07.044Z,20.67
2022-10-18T13:54:45.548Z,20.64
2022-10-18T13:57:24.467Z,20.57
2022-10-18T14:00:15.692Z,20.52
2022-10-18T14:02:57.755Z,20.50
2022-10-18T14:06:00.222Z,20.52
2022-10-18T14:08:45.903Z,20.50
2022-10-18T14:11:53.590Z,20.50
2022-10-18T14:14:42.690Z,20.44
2022-10-18T14:17:32.504Z,20.35
2022-10-18T14:20:20.645Z,20.28
2022-10-18T14:23:05.547Z,20.17
2022-10-18T14:25:35.949Z,20.04
2022-10-18T14:28:36.247Z,19.85
2022-10-18T14:31:16.184Z,19.70
2022-10-18T14:33:58.386Z,19.59
2022-10-18T14:36:29.612Z,19.41
2022-10-18T14:38:59.175Z,19.23
2022-10-18T14:41:34.303Z,19.08
2022-10-18T14:44:16.255Z,18.89
2022-10-18T14:46:45.327Z,18.69
2022-10-18T14:49:13.434Z,18.53
2022-10-18T14:51:43.050Z,18.37
2022-10-18T14:54:19.454Z,18.21
2022-10-18T14:56:46.604Z,18.10
2022-10-18T14:59:37.027Z,17.94
2022-10-18T15:02:35.397Z,17.77
2022-10-18T15:05:17.596Z,17.61
2022-10-18T15:07:45.070Z,17.44
2022-10-18T15:10:18.538Z,17.25
2022-10-18T15:13:08.258Z,17.08
2022-10-18T15:15:34.902Z,16.92
2022-10-18T15:18:02.317Z,16.76
2022-10-18T15:20:33.551Z,16.58
2022-10-18T15:23:24.794Z,16.40
2022-10-18T15:25:53.062Z,16.26
2022-10-18T15:28:50.094Z,16.12
2022-10-18T15:31:24.509Z,15.98
2022-10-18T15:33:52.951Z,15.86
2022-10-18T15:36:32.292Z,15.72
2022-10-18T15:39:15.654Z,15.57
2022-10-18T15:41:59.480Z,15.43
2022-10-18T15:44:31.967Z,15.33
2022-10-18T15:47:21.685Z,15.23
2022-10-18T15:49:58.679Z,15.12
2022-10-18T15:52:43.299Z,14.95
2022-10-18T15:59:03.614Z,14.60
2022-10-18T16:01:35.745Z,14.41
2022-10-18T16:04:09.066Z,14.27
2022-10-18T16:06:38.748Z,14.16
2022-10-18T16:09:05.843Z,14.07
2022-10-18T16:11:32.789Z,13.95
2022-10-18T16:14:00.541Z,13.86
2022-10-18T16:16:28.949Z,13.76
2022-10-18T16:18:56.097Z,13.67
2022-10-18T16:21:35.138Z,13.60
2022-10-18T16:24:02.440Z,13.52
2022-10-18T16:26:29.593Z,13.44
2022-10-18T16:28:58.074Z,13.35
2022-10-18T16:31:31.354Z,13.29
2022-10-18T16:33:59.021Z,13.24
2022-10-18T16:36:29.106Z,13.16
2022-10-18T16:38:57.302Z,13.08
2022-10-18T16:41:23.986Z,13.01
2022-10-18T16:43:51.335Z,12.94
2022-10-18T16:46:21.248Z,12.87
2022-10-18T16:48:49.831Z,12.80
2022-10-18T16:51:17.430Z,12.72
2022-10-18T16:53:44.498Z,12.67
2022-10-18T16:56:16.009Z,12.61
2022-10-18T16:58:43.032Z,12.54
2022-10-18T17:01:18.343Z,12.45
2022-10-18T17:03:45.704Z,12.35
2022-10-18T17:06:18.312Z,12.30
2022-10-18T17:08:45.548Z,12.24
2022-10-18T17:11:14.284Z,12.21
2022-10-18T17:13:41.074Z,12.13
2022-10-18T17:16:16.184Z,12.06
2022-10-18T17:18:42.962Z,11.99
2022-10-18T17:21:09.615Z,11.89
2022-10-18T17:23:36.215Z,11.82
2022-10-18T17:26:26.206Z,11.79
2022-10-18T17:28:54.854Z,11.73
2022-10-18T17:31:22.750Z,11.72
2022-10-18T17:33:49.491Z,11.66
2022-10-18T17:36:16.482Z,11.61
2022-10-18T17:38:43.176Z,11.54
2022-10-18T17:41:11.570Z,11.48
2022-10-18T17:46:08.427Z,11.35
2022-10-18T17:48:35.190Z,11.28
2022-10-18T17:51:07.717Z,11.26
2022-10-18T17:53:34.939Z,11.23
2022-10-18T17:56:03.183Z,11.23
2022-10-18T17:58:31.586Z,11.15
2022-10-18T18:01:08.541Z,11.10
2022-10-18T18:03:35.259Z,11.05
2022-10-18T18:06:21.672Z,10.99
2022-10-18T18:08:49.769Z,10.96
2022-10-18T18:11:17.429Z,10.89
2022-10-18T18:13:44.105Z,10.86
2022-10-18T18:16:31.230Z,10.84
2022-10-18T18:18:58.920Z,10.73
2022-10-18T18:21:27.207Z,10.67
2022-10-18T18:23:54.036Z,10.63
2022-10-18T18:26:21.462Z,10.60
2022-10-18T18:28:48.958Z,10.54
2022-10-18T18:31:19.416Z,10.53
2022-10-18T18:33:46.437Z,10.53
2022-10-18T18:36:13.481Z,10.51
2022-10-18T18:38:42.963Z,10.45
2022-10-18T18:41:15.456Z,10.40
2022-10-18T18:43:45.453Z,10.36
2022-10-18T18:46:13.592Z,10.33
2022-10-18T18:48:40.952Z,10.27
2022-10-18T18:51:13.586Z,10.23
2022-10-18T18:53:41.608Z,10.18
2022-10-18T18:56:10.960Z,10.16
2022-10-18T18:58:39.094Z,10.15
2022-10-18T19:01:20.052Z,10.07
2022-10-18T19:03:49.494Z,10.04
2022-10-18T19:06:22.148Z,10.00
2022-10-18T19:08:52.845Z,9.92
2022-10-18T19:11:21.489Z,9.85
2022-10-18T19:13:51.301Z,9.79
2022-10-18T19:16:24.550Z,9.73
2022-10-18T19:19:00.005Z,9.64
2022-10-18T19:21:29.978Z,9.62
2022-10-18T19:23:57.922Z,9.63
